createdAt,value
2019-04-04T00:00:45.116Z,19.87
2019-04-04T00:02:59.228Z,21.10
2019-04-04T00:05:17.687Z,20.80
2019-04-04T00:10:35.267Z,23.20
2019-04-04T00:12:41.776Z,25.27
2019-04-04T00:15:00.054Z,24.87
2019-04-04T00:17:29.311Z,24.80
2019-04-04T00:19:56.630Z,23.80
2019-04-04T00:22:05.624Z,26.97
2019-04-04T00:24:34.352Z,25.93
2019-04-04T00:26:45.454Z,24.53
2019-04-04T00:28:57.811Z,26.77
2019-04-04T00:31:21.234Z,26.10
2019-04-04T00:33:34.893Z,28.07
2019-04-04T00:35:55.906Z,27.07
2019-04-04T00:37:59.834Z,27.63
2019-04-04T00:40:19.696Z,28.20
2019-04-04T00:42:43.868Z,28.97
2019-04-04T00:45:06.343Z,28.30
2019-04-04T00:47:46.941Z,28.30
2019-04-04T00:50:52.083Z,30.20
2019-04-04T00:56:37.811Z,30.93
2019-04-04T00:59:28.985Z,31.03
2019-04-04T01:02:07.201Z,34.70
2019-04-04T01:14:52.291Z,36.50
2019-04-04T01:21:10.982Z,32.40
2019-04-04T01:23:44.405Z,33.47
2019-04-04T01:26:35.149Z,34.17
2019-04-04T01:29:40.858Z,35.20
2019-04-04T01:41:38.736Z,34.87
2019-04-04T01:44:15.693Z,32.57
2019-04-04T01:46:39.372Z,33.60
2019-04-04T01:49:26.053Z,33.50
2019-04-04T01:55:04.288Z,31.00
2019-04-04T01:58:13.903Z,30.23
2019-04-04T02:00:30.401Z,30.97
2019-04-04T02:03:07.014Z,30.43
2019-04-04T02:06:11.324Z,28.97
2019-04-04T02:08:37.606Z,30.00
2019-04-04T02:21:02.264Z,30.10
2019-04-04T02:23:55.632Z,30.20
2019-04-04T02:32:05.750Z,30.97
2019-04-04T02:38:04.615Z,34.63
2019-04-04T02:50:21.194Z,39.30
2019-04-04T03:03:43.095Z,35.33
2019-04-04T03:09:25.498Z,39.87
2019-04-04T03:11:44.267Z,38.87
2019-04-04T03:13:57.505Z,40.60
2019-04-04T03:16:13.858Z,41.43
2019-04-04T03:18:50.284Z,42.50
2019-04-04T03:21:39.664Z,44.00
2019-04-04T03:24:05.999Z,41.40
2019-04-04T03:26:38.928Z,43.60
2019-04-04T03:29:30.373Z,41.30
2019-04-04T03:35:13.644Z,47.23
2019-04-04T03:38:27.536Z,48.73
2019-04-04T03:40:50.068Z,47.87
2019-04-04T03:43:53.800Z,47.27
2019-04-04T03:46:20.850Z,51.20
2019-04-04T03:48:49.907Z,47.53
2019-04-04T03:51:23.137Z,47.10
2019-04-04T03:54:36.959Z,48.10
2019-04-04T03:56:54.737Z,44.17
2019-04-04T03:59:46.764Z,47.70
2019-04-04T04:02:10.871Z,44.80
2019-04-04T04:04:28.275Z,42.87
2019-04-04T04:07:14.232Z,44.67
2019-04-04T04:10:10.422Z,43.73
2019-04-04T04:12:37.649Z,44.40
2019-04-04T04:17:36.233Z,40.37
2019-04-04T04:20:11.475Z,43.57
2019-04-04T04:22:53.052Z,41.43
2019-04-04T04:28:30.090Z,45.50
2019-04-04T04:32:05.181Z,43.70
2019-04-04T04:37:06.501Z,44.00
2019-04-04T04:39:10.471Z,44.20
2019-04-04T04:41:40.363Z,42.80
2019-04-04T04:43:44.906Z,41.67
2019-04-04T04:52:55.525Z,43.93
2019-04-04T04:54:59.589Z,40.97
2019-04-04T04:57:29.351Z,44.00
2019-04-04T04:59:44.564Z,44.17
2019-04-04T05:02:22.138Z,48.60
2019-04-04T05:08:43.131Z,43.53
2019-04-04T05:11:00.907Z,43.27
2019-04-04T05:31:28.514Z,49.40
2019-04-04T05:37:50.197Z,46.87
2019-04-04T05:40:26.625Z,48.40
2019-04-04T05:43:26.890Z,47.40
2019-04-04T05:46:33.565Z,47.37
2019-04-04T05:49:47.805Z,49.90
2019-04-04T05:55:17.594Z,43.53
2019-04-04T06:16:53.550Z,37.03
2019-04-04T06:19:56.141Z,38.93
2019-04-04T06:26:20.963Z,37.00
2019-04-04T06:28:28.922Z,34.87
2019-04-04T06:34:44.932Z,35.47
2019-04-04T07:14:12.872Z,28.17
2019-04-04T07:27:47.365Z,30.27
2019-04-04T07:34:59.914Z,27.57
2019-04-04T07:38:06.062Z,26.27
2019-04-04T08:19:58.754Z,20.53
2019-04-04T08:46:19.614Z,16.10
2019-04-04T08:57:54.727Z,15.20
2019-04-04T09:00:30.079Z,13.60
2019-04-04T09:06:28.340Z,14.10
2019-04-04T09:16:59.390Z,15.03
2019-04-04T09:23:56.335Z,12.07
2019-04-04T09:27:02.106Z,13.20
2019-04-04T09:43:12.547Z,11.63
2019-04-04T09:46:23.122Z,10.67
2019-04-04T11:16:29.912Z,8.97
2019-04-04T12:00:02.089Z,12.17
2019-04-04T12:23:41.212Z,12.10
2019-04-04T13:08:12.390Z,12.93
2019-04-04T13:10:33.414Z,13.33
2019-04-04T13:12:43.325Z,11.30
2019-04-04T13:15:22.254Z,13.03
2019-04-04T13:17:44.866Z,13.40
2019-04-04T13:20:11.604Z,12.00
2019-04-04T13:25:38.273Z,12.43
2019-04-04T13:28:22.970Z,13.40
2019-04-04T14:01:02.864Z,3.20
2019-04-04T14:03:18.594Z,5.27
2019-04-04T16:31:26.531Z,9.57
2019-04-04T17:33:59.733Z,8.53
2019-04-04T17:36:55.170Z,8.67
2019-04-04T17:46:21.937Z,8.70
2019-04-04T17:54:20.961Z,9.30
2019-04-04T17:56:57.406Z,9.13
2019-04-04T18:03:23.257Z,9.90
2019-04-04T18:09:48.737Z,8.80
2019-04-04T18:12:40.088Z,7.57
2019-04-04T18:14:38.713Z,8.90
2019-04-04T18:18:57.667Z,9.40
2019-04-04T18:20:55.668Z,11.43
2019-04-04T18:34:08.694Z,9.60
2019-04-04T18:40:38.527Z,8.67
2019-04-04T18:43:10.342Z,7.80
2019-04-04T18:52:42.812Z,9.77
2019-04-04T18:56:08.182Z,9.93
2019-04-04T20:14:20.101Z,12.90
2019-04-04T20:23:29.790Z,13.50
2019-04-04T20:32:21.185Z,13.27
2019-04-04T20:34:25.356Z,15.10
2019-04-04T20:36:29.799Z,14.23
2019-04-04T20:38:33.852Z,14.77
2019-04-04T20:40:45.712Z,15.03
2019-04-04T20:42:47.116Z,16.20
2019-04-04T20:44:56.116Z,16.20
2019-04-04T20:47:09.388Z,16.37
2019-04-04T20:49:22.110Z,17.23
2019-04-04T20:51:29.485Z,17.40
2019-04-04T20:53:33.358Z,16.47
2019-04-04T20:55:37.266Z,16.73
2019-04-04T20:57:42.452Z,17.30
2019-04-04T20:59:55.359Z,16.63
2019-04-04T21:01:59.470Z,15.03
2019-04-04T21:04:03.508Z,15.80
2019-04-04T21:06:07.579Z,17.70
2019-04-04T21:08:16.212Z,16.83
2019-04-04T21:10:28.796Z,15.30
2019-04-04T21:12:34.448Z,14.90
2019-04-04T21:14:38.599Z,16.20
2019-04-04T21:16:42.807Z,16.20
2019-04-04T21:18:46.849Z,16.93
2019-04-04T21:20:50.724Z,16.70
2019-04-04T21:22:54.827Z,18.00
2019-04-04T21:24:58.748Z,16.80
2019-04-04T21:27:02.709Z,18.30
2019-04-04T21:29:06.756Z,18.63
2019-04-04T21:31:11.080Z,17.17
2019-04-04T21:33:31.763Z,17.33
2019-04-04T21:35:35.850Z,17.83
2019-04-04T21:37:39.911Z,17.70
2019-04-04T21:39:47.442Z,17.47
2019-04-04T21:41:50.549Z,17.33
2019-04-04T21:43:54.525Z,17.27
2019-04-04T21:45:58.771Z,17.53
2019-04-04T21:48:02.758Z,18.83
2019-04-04T21:50:07.254Z,18.20
2019-04-04T21:52:11.274Z,18.30
2019-04-04T21:54:15.239Z,17.90
2019-04-04T21:56:28.103Z,17.80
2019-04-04T21:58:40.274Z,18.63
2019-04-04T22:00:45.844Z,18.40
2019-04-04T22:02:50.283Z,19.23
2019-04-04T22:04:54.372Z,17.77
2019-04-04T22:07:03.416Z,17.33
2019-04-04T22:09:16.526Z,18.30
2019-04-04T22:11:20.568Z,16.97
2019-04-04T22:13:24.549Z,19.47
2019-04-04T22:15:31.531Z,17.20
2019-04-04T22:17:40.595Z,16.33
2019-04-04T22:19:44.674Z,17.80
2019-04-04T22:21:48.878Z,18.13
2019-04-04T22:23:52.750Z,17.40
2019-04-04T22:25:56.788Z,18.70
2019-04-04T22:28:00.723Z,17.47
2019-04-04T22:30:06.103Z,18.27
2019-04-04T22:32:13.372Z,16.70
2019-04-04T22:34:17.525Z,17.47
2019-04-04T22:36:21.556Z,18.30
2019-04-04T22:38:25.547Z,19.23
2019-04-04T22:40:29.756Z,18.60
2019-04-04T22:42:33.869Z,18.83
2019-04-04T22:44:37.822Z,19.83
2019-04-04T22:46:41.898Z,17.30
2019-04-04T22:48:45.876Z,19.20
2019-04-04T22:50:49.876Z,19.87
2019-04-04T22:52:53.891Z,19.83
2019-04-04T22:54:58.143Z,19.00
2019-04-04T22:57:02.010Z,19.50
2019-04-04T22:59:06.122Z,19.47
2019-04-04T23:01:09.972Z,19.57
2019-04-04T23:03:13.988Z,18.70
2019-04-04T23:05:18.023Z,18.03
2019-04-04T23:07:21.939Z,19.77
2019-04-04T23:09:26.480Z,20.53
2019-04-04T23:11:30.728Z,18.23
2019-04-04T23:13:34.686Z,18.70
2019-04-04T23:15:43.726Z,19.63
2019-04-04T23:17:48.107Z,20.80
2019-04-04T23:19:52.077Z,19.87
2019-04-04T23:21:55.992Z,20.10
2019-04-04T23:24:00.311Z,19.37
2019-04-04T23:26:04.633Z,18.47
2019-04-04T23:28:08.618Z,20.77
2019-04-04T23:30:12.931Z,19.37
2019-04-04T23:32:16.963Z,20.63
2019-04-04T23:34:20.915Z,20.77
2019-04-04T23:36:34.383Z,23.03
2019-04-04T23:38:30.692Z,23.07
2019-04-04T23:40:34.712Z,22.33
2019-04-04T23:42:39.114Z,21.67
2019-04-04T23:44:43.431Z,21.50
2019-04-04T23:46:47.618Z,23.07
2019-04-04T23:48:51.986Z,22.27
2019-04-04T23:50:56.305Z,23.90
2019-04-04T23:53:00.749Z,22.47
2019-04-04T23:55:05.043Z,21.90
2019-04-04T23:57:09.057Z,23.70
2019-04-04T23:59:17.432Z,22.97
